sensor_id;sensor_type;location;lat;lon;timestamp;pressure;altitude;pressure_sealevel;temperature;humidity
19553;BME280;9420;50.876;7.012;2023-01-25T00:00:34;103210.47;;;10.19;87.22
19553;BME280;9420;50.876;7.012;2023-01-25T00:03:02;103207.31;;;10.52;86.20
19553;BME280;9420;50.876;7.012;2023-01-25T00:05:29;103201.41;;;10.75;84.96
19553;BME280;9420;50.876;7.012;2023-01-25T00:07:57;103199.75;;;10.89;85.04
19553;BME280;9420;50.876;7.012;2023-01-25T00:10:24;103189.41;;;11.13;83.91
19553;BME280;9420;50.876;7.012;2023-01-25T00:12:51;103186.47;;;10.74;84.71
19553;BME280;9420;50.876;7.012;2023-01-25T00:15:18;103196.22;;;10.84;85.00
19553;BME280;9420;50.876;7.012;2023-01-25T00:17:45;103183.97;;;10.92;85.54
19553;BME280;9420;50.876;7.012;2023-01-25T00:20:15;103188.41;;;10.95;84.11
19553;BME280;9420;50.876;7.012;2023-01-25T00:22:42;103188.97;;;10.59;84.93
19553;BME280;9420;50.876;7.012;2023-01-25T00:25:11;103186.44;;;10.71;85.25
19553;BME280;9420;50.876;7.012;2023-01-25T00:27:38;103188.97;;;10.59;86.10
19553;BME280;9420;50.876;7.012;2023-01-25T00:30:17;103188.72;;;11.37;83.58
19553;BME280;9420;50.876;7.012;2023-01-25T00:32:56;103180.34;;;10.78;85.49
19553;BME280;9420;50.876;7.012;2023-01-25T00:35:30;103192.28;;;10.43;87.70
19553;BME280;9420;50.876;7.012;2023-01-25T00:38:01;103172.88;;;10.32;88.45
19553;BME280;9420;50.876;7.012;2023-01-25T00:40:29;103174.44;;;10.16;90.32
19553;BME280;9420;50.876;7.012;2023-01-25T00:42:56;103180.84;;;10.41;89.12
19553;BME280;9420;50.876;7.012;2023-01-25T00:45:25;103171.41;;;10.64;88.14
19553;BME280;9420;50.876;7.012;2023-01-25T00:47:54;103165.81;;;10.28;89.38
19553;BME280;9420;50.876;7.012;2023-01-25T00:50:21;103164.44;;;10.69;88.16
19553;BME280;9420;50.876;7.012;2023-01-25T00:52:49;103158.38;;;10.81;87.18
19553;BME280;9420;50.876;7.012;2023-01-25T00:55:16;103157.31;;;10.56;88.11
19553;BME280;9420;50.876;7.012;2023-01-25T00:57:43;103162.66;;;10.65;88.74
19553;BME280;9420;50.876;7.012;2023-01-25T01:00:12;103149.50;;;10.67;87.45
19553;BME280;9420;50.876;7.012;2023-01-25T01:02:39;103162.56;;;10.53;88.43
19553;BME280;9420;50.876;7.012;2023-01-25T01:05:07;103157.50;;;10.77;87.06
19553;BME280;9420;50.876;7.012;2023-01-25T01:07:34;103161.88;;;10.74;87.92
19553;BME280;9420;50.876;7.012;2023-01-25T01:10:04;103145.75;;;10.42;89.09
19553;BME280;9420;50.876;7.012;2023-01-25T01:12:31;103147.06;;;10.92;87.36
19553;BME280;9420;50.876;7.012;2023-01-25T01:14:58;103143.59;;;10.96;87.03
19553;BME280;9420;50.876;7.012;2023-01-25T01:17:25;103148.78;;;10.87;87.16
19553;BME280;9420;50.876;7.012;2023-01-25T01:19:52;103152.09;;;10.62;88.50
19553;BME280;9420;50.876;7.012;2023-01-25T01:22:19;103151.19;;;10.57;88.39
19553;BME280;9420;50.876;7.012;2023-01-25T01:24:47;103149.13;;;10.27;89.99
19553;BME280;9420;50.876;7.012;2023-01-25T01:27:15;103151.03;;;10.41;91.17
19553;BME280;9420;50.876;7.012;2023-01-25T01:29:43;103143.28;;;10.60;88.89
19553;BME280;9420;50.876;7.012;2023-01-25T01:32:10;103155.56;;;10.55;88.72
19553;BME280;9420;50.876;7.012;2023-01-25T01:34:37;103159.09;;;10.60;89.02
19553;BME280;9420;50.876;7.012;2023-01-25T01:37:04;103157.34;;;10.62;89.16
19553;BME280;9420;50.876;7.012;2023-01-25T01:39:32;103147.84;;;10.79;87.80
19553;BME280;9420;50.876;7.012;2023-01-25T01:41:59;103143.56;;;10.93;87.85
19553;BME280;9420;50.876;7.012;2023-01-25T01:44:46;103160.97;;;10.70;88.59
19553;BME280;9420;50.876;7.012;2023-01-25T01:47:20;103151.47;;;10.93;88.17
19553;BME280;9420;50.876;7.012;2023-01-25T01:49:53;103155.69;;;10.70;88.27
19553;BME280;9420;50.876;7.012;2023-01-25T01:52:28;103157.41;;;10.68;90.57
19553;BME280;9420;50.876;7.012;2023-01-25T01:55:01;103153.72;;;10.45;90.41
19553;BME280;9420;50.876;7.012;2023-01-25T01:57:34;103151.22;;;10.63;90.02
19553;BME280;9420;50.876;7.012;2023-01-25T02:00:11;103150.34;;;10.61;90.20
19553;BME280;9420;50.876;7.012;2023-01-25T02:02:41;103147.59;;;10.51;90.68
19553;BME280;9420;50.876;7.012;2023-01-25T02:05:16;103143.41;;;10.75;90.92
19553;BME280;9420;50.876;7.012;2023-01-25T02:07:48;103145.28;;;10.01;93.14
19553;BME280;9420;50.876;7.012;2023-01-25T02:10:17;103145.59;;;10.24;92.80
19553;BME280;9420;50.876;7.012;2023-01-25T02:12:45;103150.94;;;10.33;91.91
19553;BME280;9420;50.876;7.012;2023-01-25T02:15:14;103148.88;;;10.08;93.15
19553;BME280;9420;50.876;7.012;2023-01-25T02:17:43;103152.34;;;10.04;96.54
19553;BME280;9420;50.876;7.012;2023-01-25T02:20:20;103145.81;;;10.50;93.96
19553;BME280;9420;50.876;7.012;2023-01-25T02:22:58;103149.88;;;10.16;94.17
19553;BME280;9420;50.876;7.012;2023-01-25T02:25:28;103144.91;;;10.46;93.59
19553;BME280;9420;50.876;7.012;2023-01-25T02:28:02;103141.28;;;10.32;92.97
19553;BME280;9420;50.876;7.012;2023-01-25T02:30:32;103144.06;;;10.50;93.80
19553;BME280;9420;50.876;7.012;2023-01-25T02:32:59;103136.41;;;10.77;91.39
19553;BME280;9420;50.876;7.012;2023-01-25T02:35:40;103132.69;;;10.54;91.92
19553;BME280;9420;50.876;7.012;2023-01-25T02:38:11;103133.38;;;10.35;92.77
19553;BME280;9420;50.876;7.012;2023-01-25T02:40:47;103132.47;;;10.30;94.03
19553;BME280;9420;50.876;7.012;2023-01-25T02:43:17;103129.97;;;10.42;92.45
19553;BME280;9420;50.876;7.012;2023-01-25T02:45:53;103139.44;;;10.22;92.90
19553;BME280;9420;50.876;7.012;2023-01-25T02:48:20;103127.16;;;10.27;91.83
19553;BME280;9420;50.876;7.012;2023-01-25T02:50:47;103124.47;;;10.21;92.44
19553;BME280;9420;50.876;7.012;2023-01-25T02:53:14;103121.00;;;10.26;93.09
19553;BME280;9420;50.876;7.012;2023-01-25T02:55:43;103123.06;;;10.56;92.54
19553;BME280;9420;50.876;7.012;2023-01-25T02:58:10;103122.16;;;10.51;92.87
19553;BME280;9420;50.876;7.012;2023-01-25T03:00:37;103124.78;;;10.56;92.57
19553;BME280;9420;50.876;7.012;2023-01-25T03:03:04;103120.50;;;10.68;92.11
19553;BME280;9420;50.876;7.012;2023-01-25T03:05:31;103128.25;;;10.49;92.40
19553;BME280;9420;50.876;7.012;2023-01-25T03:07:58;103117.69;;;10.43;92.30
19553;BME280;9420;50.876;7.012;2023-01-25T03:10:25;103120.13;;;10.23;92.61
19553;BME280;9420;50.876;7.012;2023-01-25T03:12:54;103125.59;;;9.68;95.36
19553;BME280;9420;50.876;7.012;2023-01-25T03:15:21;103120.91;;;10.16;94.55
19553;BME280;9420;50.876;7.012;2023-01-25T03:17:48;103120.25;;;10.38;93.44
19553;BME280;9420;50.876;7.012;2023-01-25T03:20:15;103119.22;;;10.22;93.98
19553;BME280;9420;50.876;7.012;2023-01-25T03:22:42;103118.06;;;9.98;96.31
19553;BME280;9420;50.876;7.012;2023-01-25T03:25:09;103111.34;;;10.24;95.99
19553;BME280;9420;50.876;7.012;2023-01-25T03:27:36;103113.88;;;10.15;96.03
19553;BME280;9420;50.876;7.012;2023-01-25T03:30:07;103113.19;;;10.32;94.91
19553;BME280;9420;50.876;7.012;2023-01-25T03:32:35;103113.22;;;10.37;94.08
19553;BME280;9420;50.876;7.012;2023-01-25T03:35:03;103124.41;;;10.15;95.52
19553;BME280;9420;50.876;7.012;2023-01-25T03:37:30;103120.13;;;10.23;94.67
19553;BME280;9420;50.876;7.012;2023-01-25T03:39:59;103116.47;;;10.12;94.62
19553;BME280;9420;50.876;7.012;2023-01-25T03:42:26;103120.47;;;10.62;91.36
19553;BME280;9420;50.876;7.012;2023-01-25T03:44:53;103116.88;;;10.54;90.90
19553;BME280;9420;50.876;7.012;2023-01-25T03:47:21;103114.09;;;10.34;92.81
19553;BME280;9420;50.876;7.012;2023-01-25T03:49:48;103115.13;;;10.53;92.64
19553;BME280;9420;50.876;7.012;2023-01-25T03:52:15;103111.53;;;10.42;92.66
19553;BME280;9420;50.876;7.012;2023-01-25T03:54:42;103109.38;;;10.05;93.99
19553;BME280;9420;50.876;7.012;2023-01-25T03:57:09;103105.19;;;10.22;95.28
19553;BME280;9420;50.876;7.012;2023-01-25T03:59:37;103102.25;;;9.95;96.42
19553;BME280;9420;50.876;7.012;2023-01-25T04:02:04;103099.19;;;10.38;95.74
19553;BME280;9420;50.876;7.012;2023-01-25T04:04:32;103106.16;;;10.31;95.40
19553;BME280;9420;50.876;7.012;2023-01-25T04:06:59;103101.22;;;10.69;93.42
19553;BME280;9420;50.876;7.012;2023-01-25T04:09:27;103101.19;;;10.66;93.67
19553;BME280;9420;50.876;7.012;2023-01-25T04:11:54;103100.16;;;10.48;93.74
19553;BME280;9420;50.876;7.012;2023-01-25T04:14:20;103098.25;;;10.30;93.92
19553;BME280;9420;50.876;7.012;2023-01-25T04:16:48;103090.41;;;10.39;93.56
19553;BME280;9420;50.876;7.012;2023-01-25T04:19:17;103076.38;;;10.40;93.39
19553;BME280;9420;50.876;7.012;2023-01-25T04:21:46;103084.38;;;10.52;93.01
19553;BME280;9420;50.876;7.012;2023-01-25T04:24:13;103073.72;;;10.35;94.09
19553;BME280;9420;50.876;7.012;2023-01-25T04:26:40;103067.69;;;10.50;93.61
19553;BME280;9420;50.876;7.012;2023-01-25T04:29:09;103066.78;;;10.50;93.39
19553;BME280;9420;50.876;7.012;2023-01-25T04:31:38;103067.44;;;10.23;95.03
19553;BME280;9420;50.876;7.012;2023-01-25T04:34:06;103062.13;;;10.17;95.41
19553;BME280;9420;50.876;7.012;2023-01-25T04:36:33;103066.97;;;9.78;96.62
19553;BME280;9420;50.876;7.012;2023-01-25T04:39:01;103064.72;;;9.37;99.90
19553;BME280;9420;50.876;7.012;2023-01-25T04:41:28;103058.13;;;9.73;100.00
19553;BME280;9420;50.876;7.012;2023-01-25T04:43:55;103047.72;;;9.82;98.84
19553;BME280;9420;50.876;7.012;2023-01-25T04:46:23;103058.25;;;9.82;99.27
19553;BME280;9420;50.876;7.012;2023-01-25T04:48:50;103047.19;;;10.13;97.70
19553;BME280;9420;50.876;7.012;2023-01-25T04:51:17;103054.88;;;9.95;96.44
19553;BME280;9420;50.876;7.012;2023-01-25T04:53:44;103044.66;;;10.26;95.81
19553;BME280;9420;50.876;7.012;2023-01-25T04:56:12;103049.88;;;10.19;95.33
19553;BME280;9420;50.876;7.012;2023-01-25T04:58:39;103040.31;;;10.31;95.32
19553;BME280;9420;50.876;7.012;2023-01-25T05:01:07;103036.00;;;10.39;94.83
19553;BME280;9420;50.876;7.012;2023-01-25T05:03:34;103044.34;;;9.95;96.02
19553;BME280;9420;50.876;7.012;2023-01-25T05:06:01;103046.16;;;10.02;96.35
19553;BME280;9420;50.876;7.012;2023-01-25T05:08:28;103053.53;;;9.53;98.37
19553;BME280;9420;50.876;7.012;2023-01-25T05:10:55;103040.09;;;10.09;96.98
19553;BME280;9420;50.876;7.012;2023-01-25T05:13:24;103042.50;;;9.88;98.26
19553;BME280;9420;50.876;7.012;2023-01-25T05:15:51;103035.66;;;10.05;95.82
19553;BME280;9420;50.876;7.012;2023-01-25T05:18:18;103037.34;;;10.00;96.40
19553;BME280;9420;50.876;7.012;2023-01-25T05:20:45;103037.34;;;9.97;97.25
19553;BME280;9420;50.876;7.012;2023-01-25T05:23:12;103037.13;;;9.76;98.47
19553;BME280;9420;50.876;7.012;2023-01-25T05:25:39;103030.31;;;9.96;97.71
19553;BME280;9420;50.876;7.012;2023-01-25T05:28:33;103032.88;;;9.90;97.74
19553;BME280;9420;50.876;7.012;2023-01-25T05:31:03;103030.09;;;9.75;99.20
19553;BME280;9420;50.876;7.012;2023-01-25T05:33:32;103030.84;;;9.63;98.94
19553;BME280;9420;50.876;7.012;2023-01-25T05:35:59;103026.56;;;9.73;99.51
19553;BME280;9420;50.876;7.012;2023-01-25T05:38:28;103022.31;;;9.85;99.67
19553;BME280;9420;50.876;7.012;2023-01-25T05:40:57;103019.81;;;9.99;98.33
19553;BME280;9420;50.876;7.012;2023-01-25T05:43:24;103012.88;;;10.10;96.52
19553;BME280;9420;50.876;7.012;2023-01-25T05:45:53;103022.91;;;9.61;100.00
19553;BME280;9420;50.876;7.012;2023-01-25T05:48:20;103019.56;;;9.72;99.69
19553;BME280;9420;50.876;7.012;2023-01-25T05:50:50;103018.03;;;9.98;98.62
19553;BME280;9420;50.876;7.012;2023-01-25T05:53:20;103017.16;;;9.97;98.41
19553;BME280;9420;50.876;7.012;2023-01-25T05:55:49;103016.25;;;9.94;99.22
19553;BME280;9420;50.876;7.012;2023-01-25T05:58:17;103011.97;;;10.05;98.20
19553;BME280;9420;50.876;7.012;2023-01-25T06:00:44;103019.88;;;10.08;98.13
19553;BME280;9420;50.876;7.012;2023-01-25T06:03:13;103013.81;;;10.12;97.32
19553;BME280;9420;50.876;7.012;2023-01-25T06:05:41;103012.69;;;9.89;98.42
19553;BME280;9420;50.876;7.012;2023-01-25T06:08:09;103021.34;;;9.76;98.85
19553;BME280;9420;50.876;7.012;2023-01-25T06:10:38;103019.63;;;9.81;99.11
19553;BME280;9420;50.876;7.012;2023-01-25T06:13:08;103019.75;;;9.93;98.64
19553;BME280;9420;50.876;7.012;2023-01-25T06:15:35;103009.34;;;10.08;97.64
19553;BME280;9420;50.876;7.012;2023-01-25T06:18:03;103009.34;;;10.08;97.29
19553;BME280;9420;50.876;7.012;2023-01-25T06:20:36;103007.88;;;10.34;95.95
19553;BME280;9420;50.876;7.012;2023-01-25T06:23:03;103007.81;;;10.28;96.43
19553;BME280;9420;50.876;7.012;2023-01-25T06:25:31;103009.53;;;10.23;96.64
19553;BME280;9420;50.876;7.012;2023-01-25T06:27:58;103008.41;;;10.01;97.04
19553;BME280;9420;50.876;7.012;2023-01-25T06:30:25;102999.78;;;10.13;97.48
19553;BME280;9420;50.876;7.012;2023-01-25T06:32:52;102998.78;;;10.02;97.76
19553;BME280;9420;50.876;7.012;2023-01-25T06:35:19;102993.50;;;9.99;98.27
19553;BME280;9420;50.876;7.012;2023-01-25T06:37:48;102993.69;;;10.17;97.83
19553;BME280;9420;50.876;7.012;2023-01-25T06:40:16;102991.00;;;10.14;97.00
19553;BME280;9420;50.876;7.012;2023-01-25T06:42:43;102998.91;;;10.11;97.42
19553;BME280;9420;50.876;7.012;2023-01-25T06:45:10;102992.03;;;10.28;97.43
19553;BME280;9420;50.876;7.012;2023-01-25T06:47:38;102989.28;;;10.14;97.82
19553;BME280;9420;50.876;7.012;2023-01-25T06:50:07;102991.81;;;10.08;97.67
19553;BME280;9420;50.876;7.012;2023-01-25T06:52:34;102997.16;;;10.16;98.28
19553;BME280;9420;50.876;7.012;2023-01-25T06:55:04;102995.50;;;10.27;97.48
19553;BME280;9420;50.876;7.012;2023-01-25T06:57:32;102998.91;;;10.14;96.88
19553;BME280;9420;50.876;7.012;2023-01-25T07:00:00;102999.00;;;10.23;97.13
19553;BME280;9420;50.876;7.012;2023-01-25T07:02:29;103003.50;;;10.39;95.72
19553;BME280;9420;50.876;7.012;2023-01-25T07:04:56;103002.53;;;10.25;96.40
19553;BME280;9420;50.876;7.012;2023-01-25T07:07:23;103006.00;;;10.21;97.31
19553;BME280;9420;50.876;7.012;2023-01-25T07:09:50;103011.25;;;10.21;96.60
19553;BME280;9420;50.876;7.012;2023-01-25T07:12:20;103008.69;;;10.25;97.33
19553;BME280;9420;50.876;7.012;2023-01-25T07:14:47;103014.00;;;10.31;96.66
19553;BME280;9420;50.876;7.012;2023-01-25T07:17:14;103015.63;;;10.17;96.72
19553;BME280;9420;50.876;7.012;2023-01-25T07:19:43;103005.88;;;10.09;96.91
19553;BME280;9420;50.876;7.012;2023-01-25T07:22:13;103004.19;;;10.14;97.46
19553;BME280;9420;50.876;7.012;2023-01-25T07:24:42;103002.47;;;10.19;96.96
19553;BME280;9420;50.876;7.012;2023-01-25T07:27:15;103002.72;;;10.52;95.95
19553;BME280;9420;50.876;7.012;2023-01-25T07:29:45;103006.03;;;10.27;96.21
19553;BME280;9420;50.876;7.012;2023-01-25T07:32:12;103007.69;;;10.13;97.32
19553;BME280;9420;50.876;7.012;2023-01-25T07:34:39;103003.16;;;10.01;97.42
19553;BME280;9420;50.876;7.012;2023-01-25T07:37:07;102999.66;;;10.01;97.65
19553;BME280;9420;50.876;7.012;2023-01-25T07:39:35;103003.94;;;9.90;98.15
19553;BME280;9420;50.876;7.012;2023-01-25T07:42:02;103004.78;;;9.87;98.61
19553;BME280;9420;50.876;7.012;2023-01-25T07:44:29;103000.34;;;9.82;99.23
19553;BME280;9420;50.876;7.012;2023-01-25T07:46:58;102995.28;;;10.04;98.09
19553;BME280;9420;50.876;7.012;2023-01-25T07:49:25;102999.03;;;10.29;96.73
19553;BME280;9420;50.876;7.012;2023-01-25T07:51:52;103004.09;;;10.08;96.90
19553;BME280;9420;50.876;7.012;2023-01-25T07:54:19;103011.31;;;10.27;96.46
19553;BME280;9420;50.876;7.012;2023-01-25T07:56:46;103003.28;;;10.10;97.14
19553;BME280;9420;50.876;7.012;2023-01-25T07:59:17;102999.63;;;9.98;98.19
19553;BME280;9420;50.876;7.012;2023-01-25T08:01:44;102995.50;;;10.24;97.55
19553;BME280;9420;50.876;7.012;2023-01-25T08:04:12;103000.59;;;10.09;97.58
19553;BME280;9420;50.876;7.012;2023-01-25T08:06:39;103002.31;;;10.04;98.65
19553;BME280;9420;50.876;7.012;2023-01-25T08:09:11;103007.50;;;9.95;99.18
19553;BME280;9420;50.876;7.012;2023-01-25T08:11:39;102993.47;;;9.96;99.21
19553;BME280;9420;50.876;7.012;2023-01-25T08:14:07;102997.16;;;10.13;98.25
19553;BME280;9420;50.876;7.012;2023-01-25T08:16:36;103002.19;;;9.92;98.78
19553;BME280;9420;50.876;7.012;2023-01-25T08:19:04;102997.16;;;10.14;97.99
19553;BME280;9420;50.876;7.012;2023-01-25T08:21:33;102994.19;;;9.81;98.92
19553;BME280;9420;50.876;7.012;2023-01-25T08:24:04;102999.34;;;9.72;100.00
19553;BME280;9420;50.876;7.012;2023-01-25T08:26:32;102998.56;;;9.81;100.00
19553;BME280;9420;50.876;7.012;2023-01-25T08:28:59;102995.41;;;10.15;98.69
19553;BME280;9420;50.876;7.012;2023-01-25T08:31:29;102995.47;;;10.18;98.05
19553;BME280;9420;50.876;7.012;2023-01-25T08:33:57;103000.41;;;9.88;99.18
19553;BME280;9420;50.876;7.012;2023-01-25T08:36:24;102995.47;;;10.21;98.63
19553;BME280;9420;50.876;7.012;2023-01-25T08:38:56;102983.25;;;10.29;96.60
19553;BME280;9420;50.876;7.012;2023-01-25T08:41:25;102984.13;;;10.31;96.50
19553;BME280;9420;50.876;7.012;2023-01-25T08:43:54;102985.09;;;10.42;96.11
19553;BME280;9420;50.876;7.012;2023-01-25T08:46:24;102977.00;;;10.16;97.62
19553;BME280;9420;50.876;7.012;2023-01-25T08:48:53;102977.84;;;10.14;97.84
19553;BME280;9420;50.876;7.012;2023-01-25T08:51:21;102982.44;;;10.39;97.59
19553;BME280;9420;50.876;7.012;2023-01-25T08:53:48;102976.03;;;10.10;98.03
19553;BME280;9420;50.876;7.012;2023-01-25T08:56:17;102978.72;;;10.11;97.47
19553;BME280;9420;50.876;7.012;2023-01-25T08:58:47;102977.03;;;10.18;98.20
19553;BME280;9420;50.876;7.012;2023-01-25T09:01:17;102980.72;;;10.46;96.38
19553;BME280;9420;50.876;7.012;2023-01-25T09:03:46;102978.88;;;10.29;96.72
19553;BME280;9420;50.876;7.012;2023-01-25T09:06:14;102977.94;;;10.23;97.21
19553;BME280;9420;50.876;7.012;2023-01-25T09:08:42;102976.09;;;10.16;98.03
19553;BME280;9420;50.876;7.012;2023-01-25T09:11:12;102971.22;;;10.67;96.28
19553;BME280;9420;50.876;7.012;2023-01-25T09:13:41;102965.69;;;10.31;96.71
19553;BME280;9420;50.876;7.012;2023-01-25T09:16:10;102967.25;;;10.08;97.25
19553;BME280;9420;50.876;7.012;2023-01-25T09:18:40;102977.03;;;10.22;96.47
19553;BME280;9420;50.876;7.012;2023-01-25T09:21:10;102969.91;;;10.09;97.65
19553;BME280;9420;50.876;7.012;2023-01-25T09:23:38;102965.44;;;10.04;98.11
19553;BME280;9420;50.876;7.012;2023-01-25T09:26:05;102960.25;;;10.10;97.58
19553;BME280;9420;50.876;7.012;2023-01-25T09:28:33;102956.59;;;9.93;98.58
19553;BME280;9420;50.876;7.012;2023-01-25T09:31:04;102950.59;;;10.09;98.65
19553;BME280;9420;50.876;7.012;2023-01-25T09:33:35;102946.34;;;10.21;97.01
19553;BME280;9420;50.876;7.012;2023-01-25T09:36:03;102948.22;;;10.42;97.34
19553;BME280;9420;50.876;7.012;2023-01-25T09:38:31;102952.59;;;10.42;97.24
19553;BME280;9420;50.876;7.012;2023-01-25T09:41:17;102960.47;;;10.37;96.46
19553;BME280;9420;50.876;7.012;2023-01-25T09:44:11;102961.97;;;10.08;97.91
19553;BME280;9420;50.876;7.012;2023-01-25T09:46:45;102947.22;;;10.22;98.33
19553;BME280;9420;50.876;7.012;2023-01-25T09:49:47;102943.78;;;10.35;96.99
19553;BME280;9420;50.876;7.012;2023-01-25T09:55:30;102939.41;;;10.37;96.83
19553;BME280;9420;50.876;7.012;2023-01-25T09:58:01;102943.69;;;10.21;96.61
19553;BME280;9420;50.876;7.012;2023-01-25T10:00:35;102938.25;;;10.02;97.62
19553;BME280;9420;50.876;7.012;2023-01-25T10:03:17;102927.81;;;10.12;97.74
19553;BME280;9420;50.876;7.012;2023-01-25T10:05:49;102924.53;;;10.41;96.61
19553;BME280;9420;50.876;7.012;2023-01-25T10:08:27;102923.59;;;10.37;96.95
19553;BME280;9420;50.876;7.012;2023-01-25T10:11:05;102925.31;;;10.27;96.50
19553;BME280;9420;50.876;7.012;2023-01-25T10:13:33;102920.13;;;10.38;96.60
19553;BME280;9420;50.876;7.012;2023-01-25T10:16:05;102914.78;;;10.26;96.88
19553;BME280;9420;50.876;7.012;2023-01-25T10:18:52;102921.94;;;10.48;96.44
19553;BME280;9420;50.876;7.012;2023-01-25T10:21:27;102918.13;;;10.10;97.22
19553;BME280;9420;50.876;7.012;2023-01-25T10:27:23;102903.41;;;10.30;97.95
19553;BME280;9420;50.876;7.012;2023-01-25T10:30:01;102906.03;;;10.33;97.71
19553;BME280;9420;50.876;7.012;2023-01-25T10:32:30;102905.84;;;10.09;97.87
19553;BME280;9420;50.876;7.012;2023-01-25T10:35:18;102899.00;;;10.35;97.74
19553;BME280;9420;50.876;7.012;2023-01-25T10:37:48;102896.41;;;10.36;98.06
19553;BME280;9420;50.876;7.012;2023-01-25T10:40:21;102893.72;;;10.26;98.22
19553;BME280;9420;50.876;7.012;2023-01-25T10:42:57;102890.31;;;10.45;97.19
19553;BME280;9420;50.876;7.012;2023-01-25T10:45:26;102886.78;;;10.43;97.84
19553;BME280;9420;50.876;7.012;2023-01-25T10:47:59;102880.59;;;10.33;98.19
19553;BME280;9420;50.876;7.012;2023-01-25T10:50:53;102864.81;;;10.38;97.90
19553;BME280;9420;50.876;7.012;2023-01-25T10:53:31;102872.56;;;10.11;99.17
19553;BME280;9420;50.876;7.012;2023-01-25T10:56:17;102873.50;;;10.26;97.89
19553;BME280;9420;50.876;7.012;2023-01-25T10:58:49;102863.19;;;10.60;97.06
19553;BME280;9420;50.876;7.012;2023-01-25T11:01:28;102863.97;;;10.48;96.00
19553;BME280;9420;50.876;7.012;2023-01-25T11:03:57;102857.84;;;10.52;96.97
19553;BME280;9420;50.876;7.012;2023-01-25T11:06:37;102853.38;;;10.39;96.63
19553;BME280;9420;50.876;7.012;2023-01-25T11:09:32;102851.53;;;10.18;98.62
19553;BME280;9420;50.876;7.012;2023-01-25T11:12:01;102853.19;;;10.09;99.09
19553;BME280;9420;50.876;7.012;2023-01-25T11:14:31;102848.94;;;10.20;99.19
19553;BME280;9420;50.876;7.012;2023-01-25T11:17:00;102853.13;;;10.00;99.10
19553;BME280;9420;50.876;7.012;2023-01-25T11:19:33;102857.66;;;10.11;98.59
19553;BME280;9420;50.876;7.012;2023-01-25T11:22:09;102846.88;;;9.83;100.00
19553;BME280;9420;50.876;7.012;2023-01-25T11:24:46;102834.00;;;10.25;99.94
19553;BME280;9420;50.876;7.012;2023-01-25T11:27:19;102841.84;;;10.16;99.14
19553;BME280;9420;50.876;7.012;2023-01-25T11:30:08;102842.88;;;10.41;98.82
19553;BME280;9420;50.876;7.012;2023-01-25T11:32:38;102839.56;;;9.45;100.00
19553;BME280;9420;50.876;7.012;2023-01-25T11:35:16;102837.19;;;9.76;100.00
19553;BME280;9420;50.876;7.012;2023-01-25T11:38:07;102827.00;;;10.24;99.73
19553;BME280;9420;50.876;7.012;2023-01-25T11:40:44;102819.19;;;10.41;98.82
19553;BME280;9420;50.876;7.012;2023-01-25T11:43:38;102815.66;;;10.38;98.50
19553;BME280;9420;50.876;7.012;2023-01-25T11:46:28;102808.50;;;10.15;99.72
19553;BME280;9420;50.876;7.012;2023-01-25T11:49:30;102790.31;;;10.69;97.67
19553;BME280;9420;50.876;7.012;2023-01-25T11:52:18;102782.38;;;10.65;97.32
19553;BME280;9420;50.876;7.012;2023-01-25T11:54:58;102780.59;;;10.50;98.46
19553;BME280;9420;50.876;7.012;2023-01-25T11:57:45;102776.09;;;10.22;98.70
19553;BME280;9420;50.876;7.012;2023-01-25T12:00:31;102772.66;;;10.44;99.09
19553;BME280;9420;50.876;7.012;2023-01-25T12:03:52;102758.59;;;10.36;98.04
19553;BME280;9420;50.876;7.012;2023-01-25T12:06:31;102767.75;;;9.55;100.00
19553;BME280;9420;50.876;7.012;2023-01-25T12:09:19;102748.69;;;9.90;100.00
19553;BME280;9420;50.876;7.012;2023-01-25T12:12:08;102749.63;;;10.01;100.00
19553;BME280;9420;50.876;7.012;2023-01-25T12:17:54;102737.38;;;10.03;100.00
19553;BME280;9420;50.876;7.012;2023-01-25T12:20:42;102726.94;;;10.22;100.00
19553;BME280;9420;50.876;7.012;2023-01-25T12:23:31;102719.81;;;10.00;100.00
19553;BME280;9420;50.876;7.012;2023-01-25T12:26:19;102720.88;;;10.48;100.00
19553;BME280;9420;50.876;7.012;2023-01-25T12:28:54;102709.53;;;10.77;99.39
19553;BME280;9420;50.876;7.012;2023-01-25T12:31:27;102703.34;;;10.45;99.67
19553;BME280;9420;50.876;7.012;2023-01-25T12:34:00;102698.84;;;10.23;100.00
19553;BME280;9420;50.876;7.012;2023-01-25T12:36:34;102682.25;;;10.50;100.00
19553;BME280;9420;50.876;7.012;2023-01-25T12:39:09;102672.59;;;10.47;100.00
19553;BME280;9420;50.876;7.012;2023-01-25T12:41:43;102670.81;;;10.40;100.00
19553;BME280;9420;50.876;7.012;2023-01-25T12:44:20;102651.53;;;10.62;99.91
19553;BME280;9420;50.876;7.012;2023-01-25T12:46:57;102655.88;;;10.31;99.15
19553;BME280;9420;50.876;7.012;2023-01-25T12:49:33;102649.78;;;10.58;99.70
19553;BME280;9420;50.876;7.012;2023-01-25T12:52:15;102645.25;;;10.06;100.00
19553;BME280;9420;50.876;7.012;2023-01-25T12:54:46;102647.81;;;9.88;100.00
19553;BME280;9420;50.876;7.012;2023-01-25T12:57:22;102641.66;;;9.89;100.00
19553;BME280;9420;50.876;7.012;2023-01-25T13:00:00;102642.72;;;10.36;100.00
19553;BME280;9420;50.876;7.012;2023-01-25T13:02:49;102628.69;;;10.43;99.37
19553;BME280;9420;50.876;7.012;2023-01-25T13:05:30;102632.22;;;10.45;98.84
19553;BME280;9420;50.876;7.012;2023-01-25T13:08:14;102623.38;;;10.13;100.00
19553;BME280;9420;50.876;7.012;2023-01-25T13:10:48;102616.38;;;10.18;100.00
19553;BME280;9420;50.876;7.012;2023-01-25T13:13:22;102613.75;;;10.39;100.00
19553;BME280;9420;50.876;7.012;2023-01-25T13:15:52;102602.31;;;10.16;100.00
19553;BME280;9420;50.876;7.012;2023-01-25T13:18:39;102600.59;;;10.33;100.00
19553;BME280;9420;50.876;7.012;2023-01-25T13:21:43;102591.81;;;10.22;100.00
19553;BME280;9420;50.876;7.012;2023-01-25T13:24:19;102581.28;;;10.25;100.00
19553;BME280;9420;50.876;7.012;2023-01-25T13:27:02;102575.97;;;10.16;100.00
19553;BME280;9420;50.876;7.012;2023-01-25T13:29:58;102568.13;;;10.28;100.00
19553;BME280;9420;50.876;7.012;2023-01-25T13:32:58;102571.63;;;10.30;100.00